Time;durP1;ratioP1;P1;durP2;ratioP2;P2;SDS_P1;SDS_P2;PMS_P1;PMS_P2;Temp;Humidity;BMP_temperature;BMP_pressure;BME280_temperature;BME280_humidity;BME280_pressure;Samples;Min_cycle;Max_cycle;Signal;HPM_P1;HPM_P2
2024/01/16 00:01:30;;;;;;;10.48;6.47;;;;;;;-1.06;100.00;96433.03;5097279;28;20135;-50
2024/01/16 00:03:56;;;;;;;13.82;6.63;;;;;;;-1.14;100.00;96398.28;5097035;28;20078;-54
2024/01/16 00:06:22;;;;;;;11.30;6.00;;;;;;;-1.31;100.00;96381.47;5097072;28;20056;-52
2024/01/16 00:08:48;;;;;;;13.32;5.95;;;;;;;-1.42;100.00;96396.59;5096919;28;20052;-50
2024/01/16 00:11:15;;;;;;;13.95;7.07;;;;;;;-1.31;100.00;96402.19;5097264;28;20134;-55
2024/01/16 00:13:41;;;;;;;10.32;5.82;;;;;;;-1.32;100.00;96401.41;5096802;28;20134;-50
2024/01/16 00:16:08;;;;;;;12.70;6.13;;;;;;;-1.17;100.00;96383.63;5097158;28;20080;-51
2024/01/16 00:18:35;;;;;;;11.80;5.93;;;;;;;-1.23;100.00;96366.25;5096690;28;20424;-52
2024/01/16 00:21:02;;;;;;;10.48;6.57;;;;;;;-1.19;100.00;96367.09;5096445;28;20052;-50
2024/01/16 00:23:28;;;;;;;11.48;6.65;;;;;;;-1.33;100.00;96373.00;5096853;28;20131;-50
2024/01/16 00:25:54;;;;;;;12.50;5.88;;;;;;;-1.27;100.00;96381.53;5096574;28;20438;-53
2024/01/16 00:28:20;;;;;;;12.43;6.28;;;;;;;-1.19;100.00;96386.69;5096951;28;20410;-52
2024/01/16 00:30:47;;;;;;;13.40;5.80;;;;;;;-1.04;100.00;96385.03;5096599;28;20054;-50
2024/01/16 00:33:13;;;;;;;10.43;5.78;;;;;;;-1.28;100.00;96369.22;5096642;28;20048;-54
2024/01/16 00:35:40;;;;;;;9.55;5.80;;;;;;;-1.17;100.00;96374.78;5096638;28;20112;-52
2024/01/16 00:38:06;;;;;;;6.50;4.93;;;;;;;-1.06;100.00;96368.50;5096712;28;20054;-52
2024/01/16 00:40:32;;;;;;;9.75;6.38;;;;;;;-1.25;100.00;96365.81;5096402;28;20405;-51
2024/01/16 00:42:58;;;;;;;8.25;5.65;;;;;;;-0.97;100.00;96349.41;5096870;28;20155;-54
2024/01/16 00:45:25;;;;;;;10.93;5.50;;;;;;;-1.20;100.00;96322.50;5096375;28;20343;-49
2024/01/16 00:47:51;;;;;;;7.85;4.85;;;;;;;-0.93;100.00;96323.38;5096862;28;20135;-54
2024/01/16 00:50:18;;;;;;;10.90;5.80;;;;;;;-1.05;100.00;96289.38;5096169;28;20131;-52
2024/01/16 00:52:44;;;;;;;8.65;5.55;;;;;;;-1.07;100.00;96248.63;5096679;28;20135;-49
2024/01/16 00:55:10;;;;;;;11.38;5.40;;;;;;;-1.02;100.00;96251.00;5096241;28;20401;-55
2024/01/16 00:57:36;;;;;;;9.73;4.93;;;;;;;-0.95;100.00;96213.47;5096426;28;20437;-51
2024/01/16 01:00:03;;;;;;;10.13;5.85;;;;;;;-0.87;100.00;96174.00;5096322;28;20428;-54
2024/01/16 01:02:30;;;;;;;14.50;7.35;;;;;;;-1.20;100.00;96156.66;5096286;28;20055;-51
2024/01/16 01:04:56;;;;;;;8.05;5.10;;;;;;;-1.05;100.00;96173.75;5098923;28;20087;-55
2024/01/16 01:07:22;;;;;;;12.10;6.00;;;;;;;-1.17;100.00;96122.09;5099869;28;20140;-50
2024/01/16 01:09:49;;;;;;;12.48;5.22;;;;;;;-0.73;100.00;96139.25;5100153;28;20052;-50
2024/01/16 01:12:15;;;;;;;9.90;6.07;;;;;;;-1.06;100.00;96078.13;5099750;28;20061;-55
2024/01/16 01:14:41;;;;;;;8.55;5.32;;;;;;;-0.82;100.00;96068.03;5100055;28;20138;-50
2024/01/16 01:17:08;;;;;;;11.00;5.38;;;;;;;-0.72;100.00;96008.97;5099643;28;20134;-51
2024/01/16 01:19:34;;;;;;;10.35;5.78;;;;;;;-1.01;100.00;96029.38;5099944;28;20114;-54
2024/01/16 01:22:00;;;;;;;11.18;6.00;;;;;;;-0.86;100.00;96024.19;5099537;28;20135;-49
2024/01/16 01:24:27;;;;;;;11.45;6.05;;;;;;;-0.97;100.00;96016.78;5099381;28;20143;-53
2024/01/16 01:26:53;;;;;;;10.98;5.45;;;;;;;-0.89;100.00;96046.44;5099434;28;20105;-54
2024/01/16 01:29:19;;;;;;;9.30;5.70;;;;;;;-1.02;100.00;96051.28;5099580;28;20056;-49
2024/01/16 01:31:47;;;;;;;11.15;5.40;;;;;;;-0.74;100.00;96070.44;5099686;28;20044;-54
2024/01/16 01:34:13;;;;;;;12.75;4.93;;;;;;;-0.81;100.00;96027.31;5099488;28;20052;-49
2024/01/16 01:36:39;;;;;;;8.32;4.72;;;;;;;-0.97;100.00;96049.03;5099668;28;20439;-55
2024/01/16 01:39:06;;;;;;;13.02;5.60;;;;;;;-0.92;100.00;96004.91;5099273;28;20115;-50
2024/01/16 01:41:33;;;;;;;11.02;5.07;;;;;;;-0.92;100.00;96007.59;5099665;28;20048;-54
2024/01/16 01:43:59;;;;;;;7.00;4.28;;;;;;;-0.95;100.00;96027.94;5099023;28;20083;-50
2024/01/16 01:46:25;;;;;;;5.93;4.35;;;;;;;-0.91;100.00;95994.94;5099585;28;20044;-51
2024/01/16 01:48:52;;;;;;;10.77;4.80;;;;;;;-0.82;100.00;95990.81;5099067;28;20048;-50
2024/01/16 01:51:19;;;;;;;5.43;4.20;;;;;;;-0.82;100.00;95963.91;5099225;28;20078;-54
2024/01/16 01:53:47;;;;;;;8.07;4.00;;;;;;;-0.67;100.00;95912.94;5099279;28;20056;-54
2024/01/16 01:56:16;;;;;;;7.90;4.57;;;;;;;-0.88;100.00;95851.66;5099106;28;20135;-52
2024/01/16 01:58:46;;;;;;;6.65;4.28;;;;;;;-0.90;100.00;95835.13;5099059;28;20048;-52
2024/01/16 02:01:14;;;;;;;8.15;3.80;;;;;;;-0.86;100.00;95834.03;5098975;28;20109;-54
2024/01/16 02:03:42;;;;;;;7.40;3.92;;;;;;;-0.85;100.00;95805.22;5099155;28;20059;-54
2024/01/16 02:06:10;;;;;;;4.22;3.15;;;;;;;-1.20;100.00;95772.28;5098860;28;20409;-50
2024/01/16 02:08:36;;;;;;;6.75;3.40;;;;;;;-0.98;100.00;95781.28;5099216;28;20044;-50
2024/01/16 02:11:03;;;;;;;5.53;3.30;;;;;;;-1.10;100.00;95776.22;5098770;28;20116;-51
2024/01/16 02:13:29;;;;;;;9.38;3.88;;;;;;;-1.20;100.00;95828.72;5099162;28;20056;-53
2024/01/16 02:15:56;;;;;;;9.10;3.08;;;;;;;-1.05;100.00;95829.63;5098380;28;20154;-49
2024/01/16 02:18:22;;;;;;;2.97;2.70;;;;;;;-1.01;100.00;95802.75;5098896;28;20087;-52
2024/01/16 02:20:48;;;;;;;3.13;2.75;;;;;;;-1.45;100.00;95765.91;5098589;28;20139;-52
2024/01/16 02:23:15;;;;;;;3.95;3.17;;;;;;;-1.17;100.00;95769.97;5098790;28;20102;-55
2024/01/16 02:25:43;;;;;;;5.32;3.13;;;;;;;-1.36;100.00;95728.00;5098727;28;20120;-49
2024/01/16 02:28:10;;;;;;;3.78;2.83;;;;;;;-1.27;100.00;95756.06;5098489;28;20051;-55
2024/01/16 02:30:36;;;;;;;5.70;3.08;;;;;;;-1.32;100.00;95683.09;5098776;28;20048;-50
2024/01/16 02:33:03;;;;;;;4.43;2.40;;;;;;;-1.27;100.00;95659.31;5098500;28;20239;-53
2024/01/16 02:35:29;;;;;;;3.67;2.65;;;;;;;-1.20;100.00;95619.09;5098759;28;20109;-52
2024/01/16 02:37:55;;;;;;;6.18;2.85;;;;;;;-0.86;100.00;95593.91;5098409;28;20134;-51
2024/01/16 02:40:22;;;;;;;4.47;2.47;;;;;;;-0.97;100.00;95527.44;5098810;28;20108;-50
2024/01/16 02:42:48;;;;;;;5.22;2.63;;;;;;;-1.05;100.00;95490.13;5098195;28;20070;-55
2024/01/16 02:45:15;;;;;;;3.15;2.85;;;;;;;-0.95;100.00;95487.47;5098091;28;20408;-52
2024/01/16 02:47:41;;;;;;;2.20;1.90;;;;;;;-1.21;100.00;95448.22;5098465;28;20055;-50
2024/01/16 02:50:09;;;;;;;4.45;2.67;;;;;;;-1.17;100.00;95471.63;5098243;28;20112;-55
2024/01/16 02:52:35;;;;;;;4.35;2.53;;;;;;;-1.36;100.00;95486.16;5098573;28;20321;-52
2024/01/16 02:55:01;;;;;;;4.95;2.67;;;;;;;-1.49;100.00;95521.41;5098232;28;20189;-52
2024/01/16 02:57:28;;;;;;;3.25;2.65;;;;;;;-1.29;100.00;95550.69;5098382;28;20129;-55
2024/01/16 02:59:54;;;;;;;3.85;2.60;;;;;;;-1.23;100.00;95522.31;5098071;28;20437;-49
2024/01/16 03:02:21;;;;;;;2.42;2.22;;;;;;;-1.40;100.00;95496.09;5097953;28;20108;-50
2024/01/16 03:04:47;;;;;;;2.72;2.22;;;;;;;-1.30;100.00;95463.94;5097587;28;20054;-54
2024/01/16 03:07:13;;;;;;;4.22;2.63;;;;;;;-0.96;100.00;95442.16;5098229;28;20473;-50
2024/01/16 03:09:39;;;;;;;3.88;2.20;;;;;;;-1.44;100.00;95428.91;5097797;28;20078;-54
2024/01/16 03:12:06;;;;;;;4.22;2.42;;;;;;;-1.24;100.00;95415.94;5098196;28;20073;-54
2024/01/16 03:14:34;;;;;;;5.05;2.95;;;;;;;-1.24;100.00;95397.91;5097681;28;20439;-50
2024/01/16 03:17:02;;;;;;;2.80;2.50;;;;;;;-1.21;100.00;95389.09;5097954;28;20056;-56
2024/01/16 03:19:28;;;;;;;3.33;2.50;;;;;;;-1.33;100.00;95370.63;5097949;28;20050;-55
2024/01/16 03:21:54;;;;;;;4.68;2.30;;;;;;;-1.52;100.00;95354.84;5097811;28;20144;-52
2024/01/16 03:24:21;;;;;;;6.65;2.70;;;;;;;-1.50;100.00;95350.63;5097892;28;20058;-50
2024/01/16 03:26:47;;;;;;;9.05;3.03;;;;;;;-1.20;100.00;95360.28;5096584;28;20058;-51
2024/01/16 03:29:13;;;;;;;5.10;2.65;;;;;;;-1.28;100.00;95339.94;5097909;28;20048;-53
2024/01/16 03:31:39;;;;;;;5.75;3.63;;;;;;;-1.44;100.00;95334.91;5097534;28;20063;-54
2024/01/16 03:34:08;;;;;;;7.30;2.45;;;;;;;-1.65;100.00;95357.09;5097408;28;20138;-53
2024/01/16 03:36:34;;;;;;;3.53;2.92;;;;;;;-1.76;100.00;95388.50;5097425;28;20044;-55
2024/01/16 03:39:01;;;;;;;3.33;2.78;;;;;;;-1.55;100.00;95404.72;5097819;28;20185;-56
2024/01/16 03:41:27;;;;;;;6.18;2.08;;;;;;;-1.38;100.00;95397.88;5097345;28;20083;-56
2024/01/16 03:43:56;;;;;;;8.57;2.60;;;;;;;-1.54;100.00;95376.69;5097048;28;20436;-51
2024/01/16 03:46:22;;;;;;;7.03;2.65;;;;;;;-1.65;100.00;95383.94;5097573;28;20048;-53
2024/01/16 03:48:48;;;;;;;3.72;1.75;;;;;;;-1.46;100.00;95370.22;5097429;28;20143;-50
2024/01/16 03:51:17;;;;;;;2.47;2.22;;;;;;;-1.18;100.00;95325.75;5097522;28;20052;-55
2024/01/16 03:53:43;;;;;;;2.35;2.15;;;;;;;-1.48;100.00;95308.03;5097102;28;20062;-53
2024/01/16 03:56:10;;;;;;;2.50;2.30;;;;;;;-1.30;100.00;95309.97;5097329;28;20058;-50
2024/01/16 03:58:36;;;;;;;4.95;2.42;;;;;;;-1.39;100.00;95321.09;5097203;28;20435;-52
2024/01/16 04:01:02;;;;;;;2.78;2.47;;;;;;;-1.57;100.00;95329.09;5097417;28;20134;-54
2024/01/16 04:03:28;;;;;;;3.15;2.13;;;;;;;-1.39;100.00;95323.03;5097044;28;20052;-50
2024/01/16 04:05:54;;;;;;;2.78;2.35;;;;;;;-1.94;100.00;95316.69;5097375;28;20216;-55
2024/01/16 04:08:21;;;;;;;5.07;2.53;;;;;;;-1.78;100.00;95331.72;5096808;28;20420;-49
2024/01/16 04:10:47;;;;;;;4.10;2.72;;;;;;;-2.04;100.00;95348.84;5096884;28;20461;-52
2024/01/16 04:13:13;;;;;;;5.68;2.45;;;;;;;-2.04;100.00;95373.78;5096788;28;20055;-54
2024/01/16 04:15:40;;;;;;;4.25;2.53;;;;;;;-1.61;100.00;95365.94;5097034;28;20060;-51
2024/01/16 04:18:06;;;;;;;2.50;2.25;;;;;;;-1.65;100.00;95349.03;5097072;28;20044;-54
2024/01/16 04:20:32;;;;;;;5.38;2.25;;;;;;;-1.81;100.00;95359.31;5096534;28;20109;-54
2024/01/16 04:22:59;;;;;;;6.82;2.85;;;;;;;-1.91;100.00;95366.94;5096801;28;20341;-48
2024/01/16 04:25:25;;;;;;;3.05;2.53;;;;;;;-2.00;100.00;95366.53;5096511;28;20469;-55
2024/01/16 04:27:52;;;;;;;8.48;3.33;;;;;;;-2.08;100.00;95394.47;5096823;28;20048;-51
2024/01/16 04:30:20;;;;;;;4.25;2.40;;;;;;;-2.03;100.00;95407.53;5096608;28;20064;-49
2024/01/16 04:32:46;;;;;;;4.95;2.70;;;;;;;-2.26;100.00;95425.78;5097023;28;20055;-52
2024/01/16 04:35:12;;;;;;;4.78;2.17;;;;;;;-2.45;100.00;95465.09;5096495;28;20056;-51
2024/01/16 04:37:38;;;;;;;4.40;2.50;;;;;;;-2.38;100.00;95532.22;5096544;28;20056;-53
2024/01/16 04:40:05;;;;;;;3.38;2.78;;;;;;;-2.29;100.00;95592.88;5096727;28;20048;-50
2024/01/16 04:42:32;;;;;;;4.68;2.85;;;;;;;-2.31;100.00;95608.56;5096457;28;20120;-54
2024/01/16 04:44:58;;;;;;;4.40;3.00;;;;;;;-2.39;100.00;95648.72;5096479;28;20138;-52
2024/01/16 04:47:25;;;;;;;5.18;2.70;;;;;;;-2.13;100.00;95661.28;5096237;28;20048;-52
2024/01/16 04:49:51;;;;;;;5.35;2.75;;;;;;;-2.09;100.00;95639.84;5096297;28;20051;-54
2024/01/16 04:52:17;;;;;;;2.40;2.20;;;;;;;-2.09;100.00;95615.69;5096153;28;20062;-51
2024/01/16 04:54:45;;;;;;;4.25;2.50;;;;;;;-2.27;100.00;95617.41;5096075;28;20048;-54
2024/01/16 04:57:11;;;;;;;6.78;2.30;;;;;;;-2.22;100.00;95631.28;5095656;28;20048;-55
2024/01/16 04:59:38;;;;;;;10.85;2.65;;;;;;;-2.30;100.00;95620.81;5096141;28;20077;-52
2024/01/16 05:02:05;;;;;;;4.95;2.13;;;;;;;-2.27;100.00;95618.16;5095899;28;20201;-54
2024/01/16 05:04:31;;;;;;;4.93;2.90;;;;;;;-2.48;100.00;95634.03;5096389;28;20052;-51
2024/01/16 05:06:57;;;;;;;3.33;3.00;;;;;;;-2.44;100.00;95683.91;5095807;28;20505;-54
2024/01/16 05:09:23;;;;;;;6.03;2.40;;;;;;;-2.40;100.00;95683.94;5095852;28;20443;-49
2024/01/16 05:11:49;;;;;;;2.55;2.17;;;;;;;-2.61;100.00;95650.38;5095769;28;20060;-55
2024/01/16 05:14:15;;;;;;;2.40;2.17;;;;;;;-2.64;100.00;95701.28;5095729;28;20056;-51
2024/01/16 05:16:42;;;;;;;3.10;2.38;;;;;;;-2.51;100.00;95731.31;5095857;28;20066;-50
2024/01/16 05:19:08;;;;;;;7.88;3.03;;;;;;;-2.47;100.00;95767.78;5095458;28;20135;-53
2024/01/16 05:21:35;;;;;;;3.03;2.10;;;;;;;-2.55;100.00;95765.38;5095689;28;20062;-52
2024/01/16 05:24:01;;;;;;;4.05;2.10;;;;;;;-2.38;100.00;95772.88;5095708;28;20063;-54
2024/01/16 05:26:27;;;;;;;3.13;2.10;;;;;;;-2.44;100.00;95745.59;5096042;28;20052;-52
2024/01/16 05:28:53;;;;;;;4.43;2.38;;;;;;;-2.41;100.00;95731.47;5095576;28;20062;-49
2024/01/16 05:31:19;;;;;;;3.42;2.38;;;;;;;-2.40;100.00;95706.19;5096016;28;20048;-54
2024/01/16 05:33:46;;;;;;;2.92;1.77;;;;;;;-2.51;100.00;95694.53;5095571;28;20059;-54
2024/01/16 05:36:12;;;;;;;4.68;2.28;;;;;;;-2.61;100.00;95701.31;5095906;28;20147;-54
2024/01/16 05:38:39;;;;;;;4.70;2.55;;;;;;;-2.54;100.00;95707.91;5095270;28;20321;-48
2024/01/16 05:41:06;;;;;;;3.13;2.10;;;;;;;-2.63;100.00;95725.06;5095387;28;20067;-54
2024/01/16 05:43:32;;;;;;;3.30;2.03;;;;;;;-2.78;100.00;95717.94;5095690;28;20044;-52
2024/01/16 05:45:58;;;;;;;3.17;1.85;;;;;;;-2.59;100.00;95759.97;5095404;28;20158;-51
2024/01/16 05:48:24;;;;;;;1.92;1.70;;;;;;;-2.61;100.00;95827.34;5095707;28;20324;-52
2024/01/16 05:50:51;;;;;;;2.40;2.10;;;;;;;-2.99;100.00;95887.25;5097207;28;20426;-50
2024/01/16 05:53:17;;;;;;;4.55;2.85;;;;;;;-2.76;100.00;96028.59;5099051;28;20048;-55
2024/01/16 05:55:43;;;;;;;2.28;2.00;;;;;;;-2.97;100.00;96120.84;5098653;28;20055;-50
2024/01/16 05:58:10;;;;;;;4.45;2.13;;;;;;;-2.90;100.00;96198.75;5098881;28;20096;-51
2024/01/16 06:00:36;;;;;;;1.88;1.77;;;;;;;-2.69;100.00;96302.25;5098552;28;20428;-52
2024/01/16 06:03:02;;;;;;;3.08;1.73;;;;;;;-3.44;100.00;96321.84;5099082;28;20044;-52
2024/01/16 06:05:29;;;;;;;2.40;2.20;;;;;;;-3.24;100.00;96437.94;5098484;28;20142;-52
2024/01/16 06:07:56;;;;;;;2.80;2.35;;;;;;;-3.42;100.00;96483.00;5098783;28;20059;-54
2024/01/16 06:10:22;;;;;;;4.80;2.95;;;;;;;-3.46;100.00;96547.19;5098771;28;20047;-54
2024/01/16 06:12:48;;;;;;;5.78;4.20;;;;;;;-3.65;100.00;96571.06;5098526;28;20142;-49
2024/01/16 06:15:15;;;;;;;9.13;4.47;;;;;;;-3.22;100.00;96605.28;5098787;28;20060;-54
2024/01/16 06:17:41;;;;;;;5.25;3.78;;;;;;;-3.35;100.00;96617.13;5098615;28;20135;-48
2024/01/16 06:20:08;;;;;;;5.13;2.90;;;;;;;-3.37;100.00;96622.81;5098528;28;20465;-55
2024/01/16 06:22:34;;;;;;;3.08;2.70;;;;;;;-3.26;100.00;96620.50;5098388;28;20052;-54
2024/01/16 06:25:01;;;;;;;5.95;2.65;;;;;;;-3.37;100.00;96624.72;5098709;28;20056;-49
2024/01/16 06:27:27;;;;;;;2.70;2.00;;;;;;;-3.50;100.00;96628.50;5098213;28;20052;-54
2024/01/16 06:29:54;;;;;;;2.95;2.33;;;;;;;-3.36;100.00;96639.69;5098517;28;20050;-54
2024/01/16 06:32:20;;;;;;;2.85;2.58;;;;;;;-3.14;100.00;96641.13;5097988;28;20104;-49
2024/01/16 06:34:46;;;;;;;2.95;2.58;;;;;;;-2.80;100.00;96641.72;5097862;28;20527;-54
2024/01/16 06:37:12;;;;;;;7.93;3.13;;;;;;;-3.05;100.00;96647.13;5098247;28;20332;-52
2024/01/16 06:39:39;;;;;;;2.95;2.70;;;;;;;-2.85;100.00;96648.13;5098250;28;20062;-49
2024/01/16 06:42:06;;;;;;;3.90;3.13;;;;;;;-2.81;100.00;96654.34;5098100;28;20044;-55
2024/01/16 06:44:32;;;;;;;5.65;2.83;;;;;;;-2.52;100.00;96658.63;5098014;28;20201;-54
2024/01/16 06:46:59;;;;;;;3.50;2.95;;;;;;;-2.95;100.00;96649.34;5098099;28;20150;-52
2024/01/16 06:49:25;;;;;;;4.68;2.47;;;;;;;-2.68;100.00;96657.78;5097787;28;20043;-52
2024/01/16 06:51:52;;;;;;;4.15;2.33;;;;;;;-2.51;100.00;96667.47;5098072;28;20052;-52
2024/01/16 06:54:20;;;;;;;10.18;3.53;;;;;;;-2.56;100.00;96659.66;5097621;28;20130;-55
2024/01/16 06:56:48;;;;;;;4.22;2.75;;;;;;;-2.43;100.00;96659.28;5098208;28;20048;-55
2024/01/16 06:59:16;;;;;;;3.22;2.08;;;;;;;-1.91;100.00;96663.72;5097463;28;20088;-52
2024/01/16 07:01:42;;;;;;;7.55;3.10;;;;;;;-1.86;100.00;96621.66;5097954;28;20324;-52
2024/01/16 07:04:08;;;;;;;5.75;2.53;;;;;;;-1.89;100.00;96580.16;5097834;28;20382;-58
2024/01/16 07:06:34;;;;;;;9.80;2.95;;;;;;;-1.61;100.00;96525.53;5097841;28;20134;-52
2024/01/16 07:09:00;;;;;;;4.80;2.08;;;;;;;-1.50;100.00;96443.25;5097863;28;20131;-54
2024/01/16 07:11:26;;;;;;;6.88;2.78;;;;;;;-1.39;100.00;96330.63;5097721;28;20048;-55
2024/01/16 07:13:53;;;;;;;13.20;4.65;;;;;;;-1.33;100.00;96246.66;5097667;28;20135;-50
2024/01/16 07:16:19;;;;;;;4.18;2.60;;;;;;;-1.02;100.00;96167.66;5097409;28;20060;-58
2024/01/16 07:18:48;;;;;;;3.00;2.28;;;;;;;-0.96;100.00;96053.28;5097837;28;20377;-56
2024/01/16 07:21:18;;;;;;;6.30;2.80;;;;;;;-1.02;100.00;95936.44;5097585;28;20055;-55
2024/01/16 07:23:44;;;;;;;6.68;2.20;;;;;;;-0.90;100.00;95876.25;5097942;28;20073;-54
2024/01/16 07:26:10;;;;;;;1.92;1.58;;;;;;;-0.86;100.00;95820.56;5097302;28;20121;-56
2024/01/16 07:28:37;;;;;;;2.75;1.88;;;;;;;-0.74;100.00;95777.22;5097715;28;20058;-52
2024/01/16 07:31:03;;;;;;;2.42;1.95;;;;;;;-0.74;100.00;95733.44;5097330;28;20078;-57
2024/01/16 07:33:30;;;;;;;6.38;2.25;;;;;;;-0.63;100.00;95695.81;5097507;28;20106;-52
2024/01/16 07:35:56;;;;;;;1.60;1.50;;;;;;;-0.70;100.00;95683.09;5097298;28;20428;-56
2024/01/16 07:38:22;;;;;;;4.60;2.35;;;;;;;-0.55;100.00;95655.16;5097281;28;20384;-56
2024/01/16 07:40:49;;;;;;;1.55;1.45;;;;;;;-0.60;100.00;95636.69;5097179;28;20134;-55
2024/01/16 07:43:15;;;;;;;2.67;1.90;;;;;;;-0.70;100.00;95586.28;5097092;28;20052;-52
2024/01/16 07:45:41;;;;;;;2.60;2.33;;;;;;;-0.80;100.00;95587.81;5096826;28;20056;-57
2024/01/16 07:48:08;;;;;;;5.03;2.88;;;;;;;-0.51;100.00;95552.91;5096997;28;20048;-54
2024/01/16 07:50:35;;;;;;;2.25;1.80;;;;;;;-0.66;100.00;95541.34;5096796;28;20048;-52
2024/01/16 07:53:01;;;;;;;3.95;2.00;;;;;;;-0.62;100.00;95523.28;5096793;28;20318;-58
2024/01/16 07:55:27;;;;;;;3.10;2.08;;;;;;;-0.60;100.00;95521.00;5097104;28;20102;-54
2024/01/16 07:57:55;;;;;;;3.67;2.38;;;;;;;-0.72;100.00;95526.72;5096528;28;20052;-57
2024/01/16 08:00:21;;;;;;;1.30;1.13;;;;;;;-0.89;100.00;95536.28;5096785;28;20055;-58
2024/01/16 08:02:48;;;;;;;3.08;2.00;;;;;;;-0.62;100.00;95534.06;5096939;28;20052;-54
2024/01/16 08:05:15;;;;;;;1.88;1.75;;;;;;;-0.80;100.00;95520.56;5096344;28;20409;-52
2024/01/16 08:07:43;;;;;;;3.28;2.38;;;;;;;-0.21;100.00;95533.75;5096665;28;20131;-58
2024/01/16 08:10:10;;;;;;;2.88;2.25;;;;;;;-0.19;100.00;95558.38;5096216;28;20079;-53
2024/01/16 08:12:37;;;;;;;3.67;2.00;;;;;;;-0.12;100.00;95619.53;5095823;28;20052;-56
2024/01/16 08:15:04;;;;;;;1.52;1.42;;;;;;;0.15;100.00;95692.69;5096016;28;20052;-57
2024/01/16 08:17:30;;;;;;;4.28;2.67;;;;;;;-0.11;100.00;95728.75;5096324;28;20093;-58
2024/01/16 08:19:56;;;;;;;4.22;2.20;;;;;;;-0.34;100.00;95767.50;5096272;28;20147;-53
2024/01/16 08:22:22;;;;;;;4.63;2.97;;;;;;;-0.22;100.00;95795.25;5096574;28;20044;-58
2024/01/16 08:24:49;;;;;;;3.22;2.05;;;;;;;-0.34;100.00;95815.16;5096304;28;20052;-51
2024/01/16 08:27:16;;;;;;;1.45;1.27;;;;;;;-0.35;100.00;95819.78;5096742;28;20052;-59
2024/01/16 08:29:43;;;;;;;2.30;2.10;;;;;;;-0.48;100.00;95819.31;5096290;28;20059;-52
2024/01/16 08:32:09;;;;;;;5.22;3.20;;;;;;;-0.65;100.00;95811.88;5096256;28;20060;-59
2024/01/16 08:34:35;;;;;;;3.83;2.80;;;;;;;-0.43;100.00;95795.88;5096397;28;20138;-54
2024/01/16 08:37:01;;;;;;;3.55;2.67;;;;;;;-0.41;100.00;95796.28;5096225;28;20349;-58
2024/01/16 08:39:28;;;;;;;5.43;2.08;;;;;;;-0.55;100.00;95795.06;5096468;28;20104;-54
2024/01/16 08:41:57;;;;;;;4.63;2.70;;;;;;;-0.63;100.00;95824.97;5095939;28;20055;-60
2024/01/16 08:44:23;;;;;;;3.78;2.55;;;;;;;-0.41;100.00;95810.50;5096463;28;20064;-54
2024/01/16 08:46:50;;;;;;;5.43;2.40;;;;;;;-0.36;100.00;95812.09;5096155;28;20076;-60
2024/01/16 08:49:16;;;;;;;5.65;2.58;;;;;;;-0.69;100.00;95851.44;5096566;28;20044;-58
2024/01/16 08:51:43;;;;;;;4.10;2.65;;;;;;;-0.55;100.00;95902.69;5096269;28;20272;-58
2024/01/16 08:54:09;;;;;;;2.83;2.38;;;;;;;-1.04;100.00;95962.91;5096400;28;20052;-57
2024/01/16 08:56:35;;;;;;;3.05;2.58;;;;;;;-1.13;100.00;95978.56;5096081;28;20052;-58
2024/01/16 08:59:02;;;;;;;3.58;2.15;;;;;;;-1.08;100.00;95988.97;5096056;28;20062;-60
2024/01/16 09:01:28;;;;;;;3.38;2.53;;;;;;;-0.91;100.00;96006.44;5096131;28;20131;-56
2024/01/16 09:03:54;;;;;;;3.17;2.10;;;;;;;-1.26;100.00;96052.50;5095793;28;20135;-61
2024/01/16 09:06:21;;;;;;;3.00;2.67;;;;;;;-1.42;100.00;96077.63;5095644;28;20166;-54
2024/01/16 09:08:47;;;;;;;2.97;1.73;;;;;;;-1.33;100.00;96044.31;5095605;28;20147;-56
2024/01/16 09:11:13;;;;;;;2.50;2.30;;;;;;;-1.54;100.00;96048.25;5095791;28;20098;-59
2024/01/16 09:13:39;;;;;;;3.30;2.10;;;;;;;-1.44;100.00;96034.19;5095567;28;20093;-56
2024/01/16 09:16:06;;;;;;;3.25;2.70;;;;;;;-1.85;100.00;96029.75;5096311;28;20059;-59
2024/01/16 09:18:33;;;;;;;3.70;2.17;;;;;;;-1.49;100.00;95996.13;5095704;28;20370;-57
2024/01/16 09:20:59;;;;;;;4.75;2.85;;;;;;;-1.35;100.00;96009.75;5096126;28;20443;-55
2024/01/16 09:23:25;;;;;;;4.03;2.03;;;;;;;-1.47;100.00;96021.47;5095588;28;20332;-55
2024/01/16 09:25:52;;;;;;;5.97;2.75;;;;;;;-1.76;100.00;96014.19;5097998;28;20051;-57
2024/01/16 09:28:18;;;;;;;3.25;1.95;;;;;;;-1.45;100.00;96000.41;5099347;28;20139;-54
2024/01/16 09:30:45;;;;;;;3.08;2.17;;;;;;;-1.23;100.00;96030.28;5099493;28;20091;-55
2024/01/16 09:33:13;;;;;;;3.38;2.45;;;;;;;-1.46;100.00;96044.53;5099355;28;20048;-53
2024/01/16 09:35:39;;;;;;;4.20;3.08;;;;;;;-1.54;100.00;96060.91;5099332;28;20193;-62
2024/01/16 09:38:05;;;;;;;4.05;2.17;;;;;;;-1.38;100.00;96074.97;5099506;28;20135;-57
2024/01/16 09:40:31;;;;;;;4.80;2.75;;;;;;;-1.62;100.00;96088.81;5098837;28;20476;-56
2024/01/16 09:42:58;;;;;;;3.53;2.45;;;;;;;-1.50;100.00;96067.91;5099280;28;20052;-55
2024/01/16 09:45:25;;;;;;;4.47;3.20;;;;;;;-1.59;100.00;96069.31;5098845;28;20058;-52
2024/01/16 09:47:52;;;;;;;4.75;2.85;;;;;;;-1.45;100.00;96078.34;5099310;28;20044;-55
2024/01/16 09:50:20;;;;;;;5.70;3.00;;;;;;;-1.51;100.00;96069.03;5098818;28;20067;-60
2024/01/16 09:52:46;;;;;;;5.57;3.17;;;;;;;-1.60;100.00;96041.66;5098677;28;20138;-59
2024/01/16 09:55:13;;;;;;;2.17;1.83;;;;;;;-1.46;100.00;96047.22;5098612;28;20063;-59
2024/01/16 09:57:41;;;;;;;3.60;2.85;;;;;;;-1.95;100.00;96085.59;5098613;28;20409;-58
2024/01/16 10:00:11;;;;;;;3.17;2.10;;;;;;;-1.88;100.00;96090.31;5098690;28;20063;-54
2024/01/16 10:02:38;;;;;;;3.67;2.65;;;;;;;-1.82;100.00;96098.84;5098719;28;20044;-60
2024/01/16 10:05:05;;;;;;;15.40;2.45;;;;;;;-1.78;100.00;96107.75;5098810;28;20319;-60
2024/01/16 10:07:34;;;;;;;6.95;3.15;;;;;;;-1.69;100.00;96129.78;5098517;28;20389;-56
2024/01/16 10:10:00;;;;;;;4.18;2.53;;;;;;;-2.39;100.00;96154.97;5098602;28;20066;-54
2024/01/16 10:12:26;;;;;;;5.22;2.83;;;;;;;-1.72;100.00;96143.91;5098354;28;20422;-56
2024/01/16 10:14:55;;;;;;;11.80;4.18;;;;;;;-1.39;100.00;96159.41;5098689;28;20048;-58
2024/01/16 10:17:22;;;;;;;4.40;2.45;;;;;;;-1.34;100.00;96212.06;5098351;28;20451;-54
2024/01/16 10:19:49;;;;;;;7.30;3.05;;;;;;;-1.35;100.00;96242.78;5097948;28;20190;-55
2024/01/16 10:22:21;;;;;;;7.32;3.47;;;;;;;-1.66;100.00;96248.00;5098610;28;20058;-55
2024/01/16 10:24:47;;;;;;;6.45;2.47;;;;;;;-1.60;100.00;96267.31;5098161;28;20405;-58
2024/01/16 10:27:16;;;;;;;17.98;6.80;;;;;;;-1.83;100.00;96280.69;5098331;28;20416;-54
2024/01/16 10:29:55;;;;;;;2.50;1.67;;;;;;;-1.96;100.00;96314.19;5097967;28;20058;-58
2024/01/16 10:32:28;;;;;;;27.88;8.40;;;;;;;-1.73;100.00;96282.03;5098502;28;20055;-56
2024/01/16 10:35:04;;;;;;;6.03;2.92;;;;;;;-1.30;100.00;96288.97;5097990;28;20109;-57
2024/01/16 10:37:30;;;;;;;7.55;3.22;;;;;;;-1.01;100.00;96310.94;5098102;28;20052;-53
2024/01/16 10:39:57;;;;;;;6.05;3.25;;;;;;;-0.86;100.00;96323.50;5097950;28;20060;-56
2024/01/16 10:42:23;;;;;;;6.03;2.95;;;;;;;-0.77;100.00;96345.56;5097885;28;20135;-55
2024/01/16 10:44:54;;;;;;;3.85;2.90;;;;;;;-0.81;100.00;96366.22;5097871;28;20401;-60
2024/01/16 10:47:22;;;;;;;4.25;3.35;;;;;;;-0.89;100.00;96369.94;5098179;28;20062;-56
2024/01/16 10:49:48;;;;;;;7.13;4.72;;;;;;;-1.17;100.00;96386.31;5097954;28;20143;-55
2024/01/16 10:52:15;;;;;;;6.00;3.22;;;;;;;-1.56;100.00;96374.84;5098022;28;20056;-58
2024/01/16 10:54:44;;;;;;;5.95;3.05;;;;;;;-0.87;100.00;96393.78;5098090;28;20087;-60
2024/01/16 10:57:13;;;;;;;11.77;7.25;;;;;;;-0.91;100.00;96388.34;5097954;28;20052;-58
2024/01/16 10:59:46;;;;;;;4.40;3.13;;;;;;;-0.60;100.00;96398.09;5098162;28;20135;-58
2024/01/16 11:02:18;;;;;;;3.60;2.63;;;;;;;-0.67;100.00;96421.41;5097865;28;20134;-56
2024/01/16 11:04:46;;;;;;;12.35;7.15;;;;;;;-1.21;100.00;96437.34;5098191;28;20051;-58
2024/01/16 11:07:14;;;;;;;4.20;3.80;;;;;;;-1.00;100.00;96450.44;5098019;28;20134;-55
2024/01/16 11:09:41;;;;;;;4.13;3.08;;;;;;;-0.81;100.00;96446.16;5098045;28;20106;-56
2024/01/16 11:12:10;;;;;;;4.68;2.90;;;;;;;-0.15;100.00;96439.56;5097787;28;20052;-56
2024/01/16 11:14:38;;;;;;;5.53;2.88;;;;;;;-0.01;100.00;96469.41;5097733;28;20071;-57
2024/01/16 11:17:05;;;;;;;3.10;2.28;;;;;;;0.31;100.00;96482.59;5097723;28;20044;-57
2024/01/16 11:19:33;;;;;;;4.00;2.88;;;;;;;0.31;100.00;96476.44;5097483;28;20048;-59
2024/01/16 11:22:00;;;;;;;9.32;3.20;;;;;;;0.49;100.00;96482.84;5097462;28;20193;-52